Time;durP1;ratioP1;P1;durP2;ratioP2;P2;SDS_P1;SDS_P2;PMS_P1;PMS_P2;Temp;Humidity;BMP_temperature;BMP_pressure;BME280_temperature;BME280_humidity;BME280_pressure;Samples;Min_cycle;Max_cycle;Signal;HPM_P1;HPM_P2
2021/12/10 00:01:42;;;;;;;36.07;20.23;;;;;;;;;;5022730;28;20747;-74
2021/12/10 00:04:08;;;;;;;38.47;20.47;;;;;;;;;;5010896;28;20725;-74
2021/12/10 00:06:37;;;;;;;38.23;20.90;;;;;;;;;;5017571;28;20238;-73
2021/12/10 00:09:15;;;;;;;33.30;19.57;;;;;;;;;;5011231;28;20251;-74
2021/12/10 00:11:54;;;;;;;30.90;18.20;;;;;;;;;;5008407;28;20224;-73
2021/12/10 00:14:25;;;;;;;34.20;19.90;;;;;;;;;;5035394;28;20220;-74
2021/12/10 00:16:56;;;;;;;33.27;18.83;;;;;;;;;;5011552;28;20216;-74
2021/12/10 00:19:33;;;;;;;35.97;19.23;;;;;;;;;;4978231;28;20949;-73
2021/12/10 00:22:07;;;;;;;37.13;19.93;;;;;;;;;;5026533;28;20689;-74
2021/12/10 00:24:33;;;;;;;34.20;19.60;;;;;;;;;;5014465;28;20280;-74
2021/12/10 00:26:59;;;;;;;35.67;19.40;;;;;;;;;;5031640;28;20307;-75
2021/12/10 00:29:25;;;;;;;36.60;19.60;;;;;;;;;;4998161;28;20230;-73
2021/12/10 00:31:53;;;;;;;36.03;18.90;;;;;;;;;;5031316;28;20312;-75
2021/12/10 00:34:31;;;;;;;32.77;18.27;;;;;;;;;;5006313;28;20225;-74
2021/12/10 00:37:02;;;;;;;32.43;18.13;;;;;;;;;;5026927;28;20219;-75
2021/12/10 00:39:35;;;;;;;32.73;18.53;;;;;;;;;;5017708;28;20224;-74
2021/12/10 00:42:01;;;;;;;32.23;17.77;;;;;;;;;;5017312;28;20740;-75
2021/12/10 00:44:31;;;;;;;28.67;17.00;;;;;;;;;;5014290;28;20227;-74
2021/12/10 00:46:57;;;;;;;31.57;17.47;;;;;;;;;;5028160;28;20240;-75
2021/12/10 00:49:23;;;;;;;33.47;17.00;;;;;;;;;;5010900;28;20224;-75
2021/12/10 00:51:51;;;;;;;29.37;17.40;;;;;;;;;;4988287;28;20226;-76
2021/12/10 00:54:20;;;;;;;31.77;16.77;;;;;;;;;;5031637;28;20228;-76
2021/12/10 00:56:48;;;;;;;30.77;16.43;;;;;;;;;;5031943;28;20598;-75
2021/12/10 00:59:17;;;;;;;30.90;16.93;;;;;;;;;;5013940;28;20222;-75
2021/12/10 01:01:48;;;;;;;30.37;16.53;;;;;;;;;;5023738;28;20630;-73
2021/12/10 01:04:23;;;;;;;27.33;16.47;;;;;;;;;;5018300;28;20223;-75
2021/12/10 01:06:51;;;;;;;25.40;15.20;;;;;;;;;;5000586;28;20219;-75
2021/12/10 01:09:23;;;;;;;31.10;16.57;;;;;;;;;;5030665;28;20251;-75
2021/12/10 01:12:15;;;;;;;31.70;15.47;;;;;;;;;;5023271;28;20347;-73
2021/12/10 01:25:50;;;;;;;23.53;13.83;;;;;;;;;;5012530;28;20286;-75
2021/12/10 01:28:18;;;;;;;29.77;15.43;;;;;;;;;;5026521;28;20239;-74
2021/12/10 01:30:47;;;;;;;27.53;15.37;;;;;;;;;;5011824;28;20232;-74
2021/12/10 01:33:17;;;;;;;26.73;14.93;;;;;;;;;;5009564;28;20235;-75
2021/12/10 01:35:49;;;;;;;24.63;14.37;;;;;;;;;;5029698;28;20266;-76
2021/12/10 01:38:17;;;;;;;27.83;14.33;;;;;;;;;;5009159;28;20221;-75
2021/12/10 01:40:44;;;;;;;27.77;14.77;;;;;;;;;;5010264;28;20225;-75
2021/12/10 01:43:23;;;;;;;25.73;14.07;;;;;;;;;;5000529;28;20224;-74
2021/12/10 01:46:06;;;;;;;25.43;13.93;;;;;;;;;;4997566;28;20216;-75
2021/12/10 01:48:38;;;;;;;22.07;13.20;;;;;;;;;;5007970;28;20694;-75
2021/12/10 01:51:04;;;;;;;24.30;13.87;;;;;;;;;;5009369;28;20661;-75
2021/12/10 01:53:35;;;;;;;26.73;14.70;;;;;;;;;;5021688;28;20308;-74
2021/12/10 01:56:03;;;;;;;21.83;13.00;;;;;;;;;;5010359;28;20614;-74
2021/12/10 01:58:32;;;;;;;21.63;13.20;;;;;;;;;;5019393;28;20213;-74
2021/12/10 02:01:11;;;;;;;21.97;13.83;;;;;;;;;;5013027;28;20275;-75
2021/12/10 02:03:40;;;;;;;23.17;14.13;;;;;;;;;;4993036;28;20298;-75
2021/12/10 02:06:10;;;;;;;21.70;13.10;;;;;;;;;;5012279;28;20236;-75
2021/12/10 02:08:36;;;;;;;21.83;13.20;;;;;;;;;;5015836;28;20726;-75
2021/12/10 02:11:03;;;;;;;22.63;12.47;;;;;;;;;;5008962;28;20252;-75
2021/12/10 02:13:29;;;;;;;21.20;13.40;;;;;;;;;;5021768;28;20244;-74
2021/12/10 02:15:55;;;;;;;26.30;13.70;;;;;;;;;;5028793;28;20245;-72
2021/12/10 02:18:21;;;;;;;22.40;13.37;;;;;;;;;;5025247;28;20274;-72
2021/12/10 02:20:58;;;;;;;22.40;12.73;;;;;;;;;;5025629;28;20240;-73
2021/12/10 02:23:25;;;;;;;24.53;13.47;;;;;;;;;;5010514;28;20223;-73
2021/12/10 02:25:58;;;;;;;21.37;12.30;;;;;;;;;;4992865;28;20220;-74
2021/12/10 02:28:26;;;;;;;20.47;12.63;;;;;;;;;;5015471;28;20247;-74
2021/12/10 02:30:53;;;;;;;22.87;12.70;;;;;;;;;;5019341;28;20664;-75
2021/12/10 02:33:19;;;;;;;23.10;12.33;;;;;;;;;;5015526;28;20227;-74
2021/12/10 02:35:47;;;;;;;23.37;12.37;;;;;;;;;;5010980;28;20303;-74
2021/12/10 02:38:16;;;;;;;20.93;12.10;;;;;;;;;;5012372;28;20220;-73
2021/12/10 02:40:44;;;;;;;22.60;12.30;;;;;;;;;;4997870;28;20220;-74
2021/12/10 02:43:10;;;;;;;22.77;12.37;;;;;;;;;;5001882;28;20215;-74
2021/12/10 02:45:36;;;;;;;20.50;11.27;;;;;;;;;;5016037;28;20226;-74
2021/12/10 02:48:04;;;;;;;19.97;11.60;;;;;;;;;;4996380;28;20216;-74
2021/12/10 02:50:33;;;;;;;20.67;11.30;;;;;;;;;;4996868;28;20224;-73
2021/12/10 02:53:01;;;;;;;17.17;11.33;;;;;;;;;;4999040;28;20251;-72
2021/12/10 02:55:31;;;;;;;18.80;11.30;;;;;;;;;;5031503;28;20220;-74
2021/12/10 02:58:02;;;;;;;20.90;11.60;;;;;;;;;;5032971;28;20238;-74
2021/12/10 03:00:29;;;;;;;18.43;11.20;;;;;;;;;;5032948;28;20604;-74
2021/12/10 03:02:59;;;;;;;21.57;10.43;;;;;;;;;;5031251;28;20224;-74
2021/12/10 03:05:25;;;;;;;19.57;11.80;;;;;;;;;;5015742;28;20227;-74
2021/12/10 03:07:51;;;;;;;15.20;10.70;;;;;;;;;;5000237;28;20240;-74
2021/12/10 03:10:24;;;;;;;19.03;10.57;;;;;;;;;;4980169;28;20298;-74
2021/12/10 03:12:55;;;;;;;17.23;10.40;;;;;;;;;;5013166;28;20224;-74
2021/12/10 03:15:25;;;;;;;17.57;10.70;;;;;;;;;;5015182;28;20753;-74
2021/12/10 03:17:53;;;;;;;18.93;10.67;;;;;;;;;;5000019;28;20290;-73
2021/12/10 03:20:20;;;;;;;19.47;10.80;;;;;;;;;;5029268;28;20248;-75
2021/12/10 03:22:46;;;;;;;16.77;10.27;;;;;;;;;;5016177;28;20239;-74
2021/12/10 03:25:19;;;;;;;14.40;9.90;;;;;;;;;;5031602;28;20602;-74
2021/12/10 03:27:47;;;;;;;20.77;10.57;;;;;;;;;;5012715;28;20213;-74
2021/12/10 03:30:20;;;;;;;15.10;10.50;;;;;;;;;;5011728;28;20704;-73
2021/12/10 03:32:46;;;;;;;18.50;10.30;;;;;;;;;;5005788;28;20764;-74
2021/12/10 03:35:34;;;;;;;17.17;9.63;;;;;;;;;;5043880;28;20232;-74
2021/12/10 03:38:04;;;;;;;17.43;9.90;;;;;;;;;;5032150;28;20228;-73
2021/12/10 03:40:30;;;;;;;18.30;10.10;;;;;;;;;;5015343;28;20212;-73
2021/12/10 03:43:00;;;;;;;17.47;9.33;;;;;;;;;;5015803;28;20220;-74
2021/12/10 03:45:31;;;;;;;15.07;10.27;;;;;;;;;;5047374;28;20223;-74
2021/12/10 03:47:58;;;;;;;17.77;10.00;;;;;;;;;;5015272;28;20255;-74
2021/12/10 03:50:31;;;;;;;14.50;9.87;;;;;;;;;;5011328;28;20217;-74
2021/12/10 03:52:59;;;;;;;16.10;9.93;;;;;;;;;;4998940;28;20232;-74
2021/12/10 03:55:25;;;;;;;22.00;10.73;;;;;;;;;;5020003;28;20212;-74
2021/12/10 03:57:51;;;;;;;15.03;9.50;;;;;;;;;;5031569;28;20231;-74
2021/12/10 04:00:18;;;;;;;12.40;9.20;;;;;;;;;;5014606;28;20231;-73
2021/12/10 04:02:48;;;;;;;15.23;9.50;;;;;;;;;;4998292;28;20764;-74
2021/12/10 04:05:16;;;;;;;21.40;12.80;;;;;;;;;;5041592;28;20220;-74
2021/12/10 04:07:44;;;;;;;14.83;10.43;;;;;;;;;;5048002;28;20220;-73
2021/12/10 04:10:13;;;;;;;14.83;10.83;;;;;;;;;;5030895;28;20247;-73
2021/12/10 04:12:38;;;;;;;14.93;9.17;;;;;;;;;;5031369;28;20232;-73
2021/12/10 04:15:07;;;;;;;16.10;9.20;;;;;;;;;;5046766;28;20249;-73
2021/12/10 04:17:35;;;;;;;15.37;9.53;;;;;;;;;;4999280;28;20212;-74
2021/12/10 04:20:03;;;;;;;15.80;9.03;;;;;;;;;;5024240;28;20220;-74
2021/12/10 04:22:32;;;;;;;12.20;9.87;;;;;;;;;;5011284;28;20225;-74
2021/12/10 04:25:03;;;;;;;11.73;9.00;;;;;;;;;;5033341;28;20228;-74
2021/12/10 04:27:29;;;;;;;15.53;9.47;;;;;;;;;;5014461;28;20302;-74
2021/12/10 04:29:59;;;;;;;11.03;8.40;;;;;;;;;;5027037;28;20228;-74
2021/12/10 04:32:27;;;;;;;11.27;8.80;;;;;;;;;;5024775;28;20678;-75
2021/12/10 04:34:53;;;;;;;12.13;8.17;;;;;;;;;;4991525;28;20222;-75
2021/12/10 04:37:20;;;;;;;12.27;8.50;;;;;;;;;;5030180;28;20227;-75
2021/12/10 04:39:48;;;;;;;11.30;8.10;;;;;;;;;;5011108;28;20270;-75
2021/12/10 04:42:19;;;;;;;14.00;9.03;;;;;;;;;;4996700;28;20221;-75
2021/12/10 04:44:45;;;;;;;12.50;8.50;;;;;;;;;;4985938;28;20261;-75
2021/12/10 04:47:11;;;;;;;13.03;7.83;;;;;;;;;;5012214;28;20256;-75
2021/12/10 04:49:39;;;;;;;11.63;8.20;;;;;;;;;;5010053;28;20221;-74
2021/12/10 04:52:07;;;;;;;14.43;8.87;;;;;;;;;;5029536;28;20220;-74
2021/12/10 04:54:35;;;;;;;14.37;8.90;;;;;;;;;;5012531;28;20297;-74
2021/12/10 04:57:05;;;;;;;15.43;8.70;;;;;;;;;;5012139;28;20220;-74
2021/12/10 04:59:33;;;;;;;13.20;8.07;;;;;;;;;;5014143;28;20216;-74
2021/12/10 05:02:06;;;;;;;11.30;8.30;;;;;;;;;;4998254;28;20216;-74
2021/12/10 05:04:34;;;;;;;16.67;8.63;;;;;;;;;;4996325;28;20836;-74
2021/12/10 05:07:00;;;;;;;17.07;8.60;;;;;;;;;;5012694;28;20278;-73
2021/12/10 05:09:26;;;;;;;13.50;8.37;;;;;;;;;;5011449;28;20216;-73
2021/12/10 05:11:56;;;;;;;15.77;8.53;;;;;;;;;;5009202;28;20226;-74
2021/12/10 05:14:27;;;;;;;12.63;7.63;;;;;;;;;;5011698;28;20226;-73
2021/12/10 05:16:53;;;;;;;12.73;8.43;;;;;;;;;;5025821;28;20574;-74
2021/12/10 05:19:21;;;;;;;16.90;8.00;;;;;;;;;;5029452;28;20231;-73
2021/12/10 05:21:49;;;;;;;13.17;7.90;;;;;;;;;;5017445;28;20236;-73
2021/12/10 05:24:14;;;;;;;13.30;8.37;;;;;;;;;;5011334;28;20251;-74
2021/12/10 05:26:42;;;;;;;14.30;8.90;;;;;;;;;;5022486;28;20216;-74
2021/12/10 05:29:08;;;;;;;15.17;8.97;;;;;;;;;;5005699;28;20224;-73
2021/12/10 05:31:35;;;;;;;13.13;8.27;;;;;;;;;;5016387;28;20229;-75
2021/12/10 05:34:05;;;;;;;13.63;8.23;;;;;;;;;;5024495;28;20231;-74
2021/12/10 05:36:31;;;;;;;16.43;9.30;;;;;;;;;;4993903;28;20270;-74
2021/12/10 05:38:59;;;;;;;15.13;8.63;;;;;;;;;;4990839;28;20646;-74
2021/12/10 05:41:25;;;;;;;13.27;8.87;;;;;;;;;;5012727;28;20220;-74
2021/12/10 05:43:50;;;;;;;17.77;9.17;;;;;;;;;;5012824;28;20659;-74
2021/12/10 05:46:23;;;;;;;14.30;8.90;;;;;;;;;;5013534;28;20220;-74
2021/12/10 05:48:53;;;;;;;14.87;8.80;;;;;;;;;;5019289;28;20244;-73
2021/12/10 05:51:19;;;;;;;15.10;9.27;;;;;;;;;;5023032;28;20273;-75
2021/12/10 05:53:44;;;;;;;17.17;10.13;;;;;;;;;;5023610;28;20228;-73
2021/12/10 05:56:10;;;;;;;13.13;9.30;;;;;;;;;;5012411;28;20215;-74
2021/12/10 05:58:35;;;;;;;14.10;9.60;;;;;;;;;;4993684;28;20270;-74
2021/12/10 06:01:09;;;;;;;14.37;9.63;;;;;;;;;;5023874;28;20248;-74
2021/12/10 06:03:35;;;;;;;13.70;9.33;;;;;;;;;;5011940;28;20586;-74
2021/12/10 06:06:03;;;;;;;16.33;10.23;;;;;;;;;;5016893;28;20220;-74
2021/12/10 06:08:31;;;;;;;17.27;9.27;;;;;;;;;;5028911;28;20215;-73
2021/12/10 06:10:58;;;;;;;12.70;9.27;;;;;;;;;;5029243;28;20232;-73
2021/12/10 06:13:26;;;;;;;14.30;9.70;;;;;;;;;;5045204;28;20644;-74
2021/12/10 06:15:54;;;;;;;18.30;10.10;;;;;;;;;;5013133;28;20247;-74
2021/12/10 06:18:20;;;;;;;15.60;9.63;;;;;;;;;;5012461;28;20224;-74
2021/12/10 06:20:51;;;;;;;17.70;10.33;;;;;;;;;;5029135;28;20220;-74
2021/12/10 06:23:17;;;;;;;15.87;9.33;;;;;;;;;;5011005;28;20224;-74
2021/12/10 06:25:46;;;;;;;17.60;10.23;;;;;;;;;;5008053;28;20592;-75
2021/12/10 06:28:12;;;;;;;16.37;9.73;;;;;;;;;;5026824;28;20598;-73
2021/12/10 06:30:47;;;;;;;20.03;9.97;;;;;;;;;;5029163;28;20224;-74
2021/12/10 06:33:15;;;;;;;17.20;10.37;;;;;;;;;;5013417;28;20231;-74
2021/12/10 06:35:41;;;;;;;17.77;10.10;;;;;;;;;;5009805;28;20876;-74
2021/12/10 06:38:07;;;;;;;17.30;9.80;;;;;;;;;;5026264;28;20216;-74
2021/12/10 06:40:36;;;;;;;14.43;10.10;;;;;;;;;;5015396;28;20618;-74
2021/12/10 06:43:03;;;;;;;18.50;10.40;;;;;;;;;;5009729;28;20228;-73
2021/12/10 06:45:29;;;;;;;16.57;9.77;;;;;;;;;;5012316;28;20277;-73
2021/12/10 06:48:01;;;;;;;16.13;10.73;;;;;;;;;;5020134;28;20640;-72
2021/12/10 06:50:29;;;;;;;16.53;10.40;;;;;;;;;;5015905;28;20754;-73
2021/12/10 06:52:55;;;;;;;20.67;10.80;;;;;;;;;;5006076;28;20224;-73
2021/12/10 06:55:21;;;;;;;16.23;10.50;;;;;;;;;;5007151;28;20323;-74
2021/12/10 06:57:46;;;;;;;16.03;10.10;;;;;;;;;;5024414;28;20216;-73
2021/12/10 07:00:15;;;;;;;20.20;10.63;;;;;;;;;;5007525;28;20240;-74
2021/12/10 07:02:44;;;;;;;17.37;10.47;;;;;;;;;;5042089;28;20278;-74
2021/12/10 07:05:09;;;;;;;17.30;9.97;;;;;;;;;;4997041;28;20235;-71
2021/12/10 07:07:38;;;;;;;16.63;9.63;;;;;;;;;;4999070;28;20674;-75
2021/12/10 07:10:07;;;;;;;19.17;10.00;;;;;;;;;;5028276;28;20286;-75
2021/12/10 07:12:36;;;;;;;16.97;10.27;;;;;;;;;;5009064;28;20304;-74
2021/12/10 07:15:03;;;;;;;17.43;9.97;;;;;;;;;;5002412;28;20698;-73
2021/12/10 07:17:33;;;;;;;17.63;10.57;;;;;;;;;;5025131;28;20220;-72
2021/12/10 07:20:03;;;;;;;18.80;10.30;;;;;;;;;;5008697;28;20270;-74
2021/12/10 07:22:31;;;;;;;15.53;10.67;;;;;;;;;;5013780;28;20311;-74
2021/12/10 07:25:02;;;;;;;16.10;10.20;;;;;;;;;;5031627;28;20216;-73
2021/12/10 07:27:29;;;;;;;20.10;11.07;;;;;;;;;;5048062;28;20223;-74
2021/12/10 07:29:55;;;;;;;18.33;9.87;;;;;;;;;;5032539;28;20230;-72
2021/12/10 07:32:20;;;;;;;15.67;9.33;;;;;;;;;;5005762;28;20699;-74
2021/12/10 07:34:46;;;;;;;15.53;9.60;;;;;;;;;;5011874;28;20220;-74
2021/12/10 07:37:14;;;;;;;17.17;10.13;;;;;;;;;;5029156;28;20717;-74
2021/12/10 07:39:40;;;;;;;16.37;9.73;;;;;;;;;;5046254;28;20217;-74
2021/12/10 07:42:07;;;;;;;16.07;9.73;;;;;;;;;;5022465;28;20229;-73
2021/12/10 07:44:36;;;;;;;15.27;9.90;;;;;;;;;;5028127;28;20224;-73
2021/12/10 07:47:08;;;;;;;15.00;9.20;;;;;;;;;;5013565;28;20224;-74
2021/12/10 07:49:34;;;;;;;15.57;8.80;;;;;;;;;;5029616;28;20223;-74
2021/12/10 07:52:00;;;;;;;16.37;8.97;;;;;;;;;;5016202;28;20909;-73
2021/12/10 07:54:25;;;;;;;13.57;9.13;;;;;;;;;;5015309;28;20208;-75
2021/12/10 07:56:53;;;;;;;15.30;9.47;;;;;;;;;;5049673;28;20697;-74
2021/12/10 07:59:19;;;;;;;15.53;9.10;;;;;;;;;;5035717;28;20287;-74
2021/12/10 08:01:45;;;;;;;14.27;8.47;;;;;;;;;;5020896;28;20220;-74
2021/12/10 08:04:13;;;;;;;12.83;8.40;;;;;;;;;;5029114;28;20243;-74
2021/12/10 08:06:41;;;;;;;14.57;8.40;;;;;;;;;;5043044;28;20224;-75
2021/12/10 08:09:07;;;;;;;14.77;9.00;;;;;;;;;;5025585;28;20235;-74
2021/12/10 08:11:36;;;;;;;14.17;9.23;;;;;;;;;;5034999;28;20286;-74
2021/12/10 08:14:02;;;;;;;15.60;9.50;;;;;;;;;;5023813;28;20724;-74
2021/12/10 08:16:30;;;;;;;15.07;9.37;;;;;;;;;;5031358;28;20228;-74
2021/12/10 08:18:56;;;;;;;15.47;8.97;;;;;;;;;;5040886;28;20607;-74
2021/12/10 08:21:22;;;;;;;15.23;9.37;;;;;;;;;;5012327;28;20249;-73
2021/12/10 08:23:50;;;;;;;17.70;9.47;;;;;;;;;;5002187;28;20248;-73
2021/12/10 08:26:15;;;;;;;13.93;8.93;;;;;;;;;;5031357;28;20224;-73
2021/12/10 08:28:43;;;;;;;13.63;8.63;;;;;;;;;;5043292;28;20316;-74
2021/12/10 08:31:09;;;;;;;16.17;10.27;;;;;;;;;;5011079;28;20282;-73
2021/12/10 08:33:37;;;;;;;15.27;9.27;;;;;;;;;;5027485;28;20227;-74
2021/12/10 08:36:08;;;;;;;16.70;9.07;;;;;;;;;;5011246;28;20221;-73
2021/12/10 08:38:36;;;;;;;16.60;9.67;;;;;;;;;;5013440;28;20220;-73
2021/12/10 08:41:11;;;;;;;18.07;9.70;;;;;;;;;;5032049;28;20239;-73
2021/12/10 08:43:40;;;;;;;14.23;9.33;;;;;;;;;;5014241;28;20208;-74
2021/12/10 08:46:06;;;;;;;16.23;9.43;;;;;;;;;;5011633;28;20232;-73
2021/12/10 08:48:34;;;;;;;16.37;9.33;;;;;;;;;;5012429;28;20221;-73
2021/12/10 08:51:02;;;;;;;15.30;9.07;;;;;;;;;;5047777;28;20227;-75
2021/12/10 08:53:32;;;;;;;12.83;9.07;;;;;;;;;;5047123;28;20294;-74
2021/12/10 08:55:58;;;;;;;13.57;8.63;;;;;;;;;;5030283;28;20246;-73
2021/12/10 08:58:26;;;;;;;14.70;8.87;;;;;;;;;;5030541;28;20216;-73
2021/12/10 09:01:00;;;;;;;15.70;9.13;;;;;;;;;;5044289;28;20243;-73
2021/12/10 09:03:30;;;;;;;14.07;8.50;;;;;;;;;;5019498;28;20224;-74
2021/12/10 09:05:58;;;;;;;15.07;9.40;;;;;;;;;;5030016;28;20232;-73
2021/12/10 09:08:26;;;;;;;13.43;9.40;;;;;;;;;;5031462;28;20666;-74
2021/12/10 09:10:52;;;;;;;13.07;9.50;;;;;;;;;;5015522;28;20224;-73
2021/12/10 09:13:20;;;;;;;14.43;8.70;;;;;;;;;;5026151;28;20248;-73
2021/12/10 09:15:49;;;;;;;14.77;9.80;;;;;;;;;;5025163;28;20220;-74
2021/12/10 09:18:14;;;;;;;15.47;9.67;;;;;;;;;;5026774;28;20231;-73
2021/12/10 09:20:42;;;;;;;16.00;9.57;;;;;;;;;;5017054;28;20221;-73
2021/12/10 09:23:10;;;;;;;15.20;9.00;;;;;;;;;;4993796;28;20268;-73
2021/12/10 09:25:36;;;;;;;14.27;9.60;;;;;;;;;;5006054;28;20226;-73
2021/12/10 09:28:04;;;;;;;13.63;9.00;;;;;;;;;;5021879;28;20217;-74
2021/12/10 09:30:38;;;;;;;12.80;8.83;;;;;;;;;;4997509;28;20216;-72
2021/12/10 09:33:08;;;;;;;12.60;9.03;;;;;;;;;;5017861;28;20224;-73
2021/12/10 09:35:37;;;;;;;14.73;9.30;;;;;;;;;;4988888;28;20231;-74
2021/12/10 09:38:11;;;;;;;12.23;8.23;;;;;;;;;;5011805;28;20227;-75
2021/12/10 09:40:43;;;;;;;15.23;8.57;;;;;;;;;;5022923;28;20239;-74
2021/12/10 09:43:13;;;;;;;13.83;8.60;;;;;;;;;;5003167;28;20220;-73
2021/12/10 09:45:44;;;;;;;12.17;8.57;;;;;;;;;;5013285;28;20216;-74
2021/12/10 09:48:13;;;;;;;13.77;9.00;;;;;;;;;;4997811;28;20698;-74
2021/12/10 09:50:50;;;;;;;15.00;8.83;;;;;;;;;;4988349;28;20217;-75
2021/12/10 09:53:16;;;;;;;14.60;8.83;;;;;;;;;;5010205;28;20310;-74
2021/12/10 09:55:42;;;;;;;16.63;9.37;;;;;;;;;;5012827;28;20319;-74
2021/12/10 09:58:10;;;;;;;14.23;9.27;;;;;;;;;;5019993;28;20361;-75
2021/12/10 10:00:47;;;;;;;14.23;8.13;;;;;;;;;;5026156;28;20693;-75
2021/12/10 10:03:15;;;;;;;12.97;8.57;;;;;;;;;;5009882;28;20212;-75
2021/12/10 10:05:45;;;;;;;12.97;8.20;;;;;;;;;;4984444;28;20359;-74
2021/12/10 10:08:17;;;;;;;14.37;8.13;;;;;;;;;;5033980;28;20224;-74
2021/12/10 10:10:49;;;;;;;11.10;7.60;;;;;;;;;;5028965;28;20220;-74
2021/12/10 10:13:18;;;;;;;13.77;7.33;;;;;;;;;;5012725;28;20307;-74
2021/12/10 10:15:46;;;;;;;11.10;7.60;;;;;;;;;;5022658;28;20302;-74
2021/12/10 10:18:12;;;;;;;11.20;7.07;;;;;;;;;;5017810;28;20222;-72
2021/12/10 10:20:42;;;;;;;11.63;7.57;;;;;;;;;;5011793;28;20300;-74
2021/12/10 10:23:10;;;;;;;12.37;8.07;;;;;;;;;;5011786;28;20231;-75
2021/12/10 10:25:40;;;;;;;11.00;7.20;;;;;;;;;;5014205;28;20215;-74
2021/12/10 10:28:08;;;;;;;15.43;7.40;;;;;;;;;;5022597;28;20610;-73
2021/12/10 10:30:41;;;;;;;9.77;6.43;;;;;;;;;;5028255;28;20299;-74
2021/12/10 10:33:11;;;;;;;12.93;6.50;;;;;;;;;;5030815;28;20228;-74
2021/12/10 10:35:42;;;;;;;9.47;6.40;;;;;;;;;;5013897;28;20693;-72
2021/12/10 10:38:10;;;;;;;8.13;6.33;;;;;;;;;;5029428;28;20278;-73
2021/12/10 10:40:38;;;;;;;10.80;6.47;;;;;;;;;;5011466;28;20226;-73
2021/12/10 10:43:04;;;;;;;10.80;7.17;;;;;;;;;;5015694;28;20212;-73
2021/12/10 10:45:32;;;;;;;12.27;6.70;;;;;;;;;;5008785;28;20585;-73
2021/12/10 10:47:58;;;;;;;10.73;6.40;;;;;;;;;;5029967;28;20752;-73
2021/12/10 10:50:26;;;;;;;12.87;6.83;;;;;;;;;;5013373;28;20216;-74
2021/12/10 10:52:54;;;;;;;12.47;6.87;;;;;;;;;;5010578;28;20233;-74
2021/12/10 10:55:21;;;;;;;11.10;6.60;;;;;;;;;;5025494;28;20236;-73
2021/12/10 10:58:03;;;;;;;10.43;6.33;;;;;;;;;;5026819;28;20216;-73
2021/12/10 11:00:51;;;;;;;8.60;5.97;;;;;;;;;;5030907;28;20239;-74
2021/12/10 11:03:22;;;;;;;11.37;6.57;;;;;;;;;;4998814;28;20260;-73
2021/12/10 11:05:49;;;;;;;11.53;6.43;;;;;;;;;;5033135;28;20239;-74
2021/12/10 11:08:24;;;;;;;8.57;5.60;;;;;;;;;;5034721;28;20307;-73
2021/12/10 11:10:58;;;;;;;9.53;5.40;;;;;;;;;;5037576;28;20216;-73
2021/12/10 11:13:25;;;;;;;7.83;5.37;;;;;;;;;;5009108;28;20236;-72
2021/12/10 11:16:05;;;;;;;8.67;5.30;;;;;;;;;;5047035;28;20224;-73
2021/12/10 11:18:45;;;;;;;6.00;5.07;;;;;;;;;;5013388;28;20212;-73
2021/12/10 11:21:18;;;;;;;8.43;5.20;;;;;;;;;;5015382;28;20319;-73
2021/12/10 11:23:46;;;;;;;9.13;5.10;;;;;;;;;;5013493;28;20220;-73
2021/12/10 11:26:14;;;;;;;8.80;5.60;;;;;;;;;;5002030;28;20232;-74
2021/12/10 11:28:42;;;;;;;8.43;5.37;;;;;;;;;;5023235;28;20232;-73
2021/12/10 11:31:18;;;;;;;7.00;5.27;;;;;;;;;;5004789;28;20219;-73
2021/12/10 11:33:49;;;;;;;8.87;6.00;;;;;;;;;;5027224;28;20702;-74
2021/12/10 11:36:22;;;;;;;9.00;4.73;;;;;;;;;;5006648;28;20701;-74
2021/12/10 11:38:57;;;;;;;8.77;4.53;;;;;;;;;;5007297;28;20688;-73
2021/12/10 11:41:27;;;;;;;7.97;5.20;;;;;;;;;;5021849;28;20774;-73
2021/12/10 11:43:57;;;;;;;7.93;5.23;;;;;;;;;;5039027;28;20217;-74
2021/12/10 11:49:21;;;;;;;7.97;5.13;;;;;;;;;;5012340;28;20285;-72
2021/12/10 11:51:55;;;;;;;10.33;5.20;;;;;;;;;;5037852;28;20728;-73
2021/12/10 11:54:35;;;;;;;7.20;4.87;;;;;;;;;;5030434;28;20224;-74
2021/12/10 11:57:15;;;;;;;6.67;4.87;;;;;;;;;;5033427;28;20306;-74
2021/12/10 11:59:54;;;;;;;10.60;5.13;;;;;;;;;;5017045;28;20224;-73
2021/12/10 12:02:32;;;;;;;8.13;4.80;;;;;;;;;;5022925;28;20220;-72
2021/12/10 12:05:00;;;;;;;7.13;4.47;;;;;;;;;;5033173;28;20374;-73
2021/12/10 12:07:34;;;;;;;7.57;4.73;;;;;;;;;;5037193;28;20282;-72
2021/12/10 12:10:12;;;;;;;9.30;5.00;;;;;;;;;;5036438;28;20308;-72
2021/12/10 12:12:44;;;;;;;7.60;4.70;;;;;;;;;;5038330;28;20232;-73
2021/12/10 12:15:17;;;;;;;8.47;4.17;;;;;;;;;;5036650;28;20224;-73
2021/12/10 12:17:47;;;;;;;6.60;4.43;;;;;;;;;;5046730;28;20212;-72
2021/12/10 12:20:31;;;;;;;8.93;4.33;;;;;;;;;;5011718;28;20232;-72
2021/12/10 12:25:48;;;;;;;7.53;4.30;;;;;;;;;;4992508;28;20260;-75
2021/12/10 12:28:16;;;;;;;8.23;4.50;;;;;;;;;;5021566;28;20299;-72
2021/12/10 12:31:01;;;;;;;6.40;4.20;;;;;;;;;;5037114;28;20224;-72
2021/12/10 12:33:28;;;;;;;7.80;4.43;;;;;;;;;;5019080;28;20236;-73
2021/12/10 12:35:55;;;;;;;8.87;5.13;;;;;;;;;;5000408;28;20216;-73
2021/12/10 12:38:29;;;;;;;6.83;4.63;;;;;;;;;;5022391;28;20212;-74
2021/12/10 12:41:16;;;;;;;8.67;5.17;;;;;;;;;;5024161;28;20219;-74
2021/12/10 12:43:48;;;;;;;9.07;4.70;;;;;;;;;;5017359;28;20653;-73
2021/12/10 12:46:14;;;;;;;8.90;5.00;;;;;;;;;;5040464;28;20225;-74
2021/12/10 12:48:56;;;;;;;8.37;5.10;;;;;;;;;;5034759;28;20225;-73
2021/12/10 12:51:25;;;;;;;8.70;5.40;;;;;;;;;;5031381;28;20276;-74
2021/12/10 12:53:55;;;;;;;9.03;5.73;;;;;;;;;;5033358;28;20232;-74
2021/12/10 12:56:24;;;;;;;10.10;5.30;;;;;;;;;;5031989;28;20227;-74
2021/12/10 12:59:02;;;;;;;7.83;5.80;;;;;;;;;;5039131;28;20220;-72
2021/12/10 13:01:40;;;;;;;10.53;6.07;;;;;;;;;;5026509;28;20287;-73
2021/12/10 13:04:15;;;;;;;9.27;5.07;;;;;;;;;;5012837;28;20220;-73
2021/12/10 13:06:50;;;;;;;8.80;5.10;;;;;;;;;;5030230;28;20232;-73
2021/12/10 13:09:17;;;;;;;9.63;4.93;;;;;;;;;;5019329;28;20224;-73
2021/12/10 13:14:57;;;;;;;6.90;4.37;;;;;;;;;;5008915;28;20208;-74
2021/12/10 13:17:30;;;;;;;9.77;5.20;;;;;;;;;;5028882;28;20244;-74
2021/12/10 13:19:59;;;;;;;8.63;4.97;;;;;;;;;;5023261;28;20808;-73
2021/12/10 13:22:28;;;;;;;9.10;4.93;;;;;;;;;;5020080;28;20236;-72
2021/12/10 13:25:04;;;;;;;8.13;4.67;;;;;;;;;;5010367;28;20234;-73
2021/12/10 13:27:36;;;;;;;7.40;4.67;;;;;;;;;;5031278;28;20235;-73
2021/12/10 13:30:05;;;;;;;7.90;5.03;;;;;;;;;;5030705;28;20224;-73
2021/12/10 13:32:35;;;;;;;7.90;5.30;;;;;;;;;;5029738;28;20707;-74
2021/12/10 13:35:06;;;;;;;7.37;4.77;;;;;;;;;;5014975;28;20235;-73
2021/12/10 13:37:34;;;;;;;6.03;4.57;;;;;;;;;;5014831;28;20269;-74
2021/12/10 13:40:00;;;;;;;8.53;5.03;;;;;;;;;;5047083;28;20224;-75
2021/12/10 13:42:29;;;;;;;9.53;5.13;;;;;;;;;;5047130;28;20227;-74
2021/12/10 13:44:55;;;;;;;9.77;4.93;;;;;;;;;;5014544;28;20220;-73
2021/12/10 13:47:31;;;;;;;6.53;4.40;;;;;;;;;;4998439;28;20271;-74
2021/12/10 13:50:00;;;;;;;8.40;5.33;;;;;;;;;;5011503;28;20267;-72
2021/12/10 13:52:48;;;;;;;7.90;4.93;;;;;;;;;;4994525;28;20603;-74
2021/12/10 13:55:24;;;;;;;7.90;5.50;;;;;;;;;;5010660;28;20224;-73
2021/12/10 13:58:18;;;;;;;8.17;4.80;;;;;;;;;;5032902;28;20230;-73
2021/12/10 14:00:58;;;;;;;7.90;4.80;;;;;;;;;;5015047;28;20232;-73
2021/12/10 14:03:45;;;;;;;6.63;4.47;;;;;;;;;;5012548;28;20667;-73
2021/12/10 14:06:31;;;;;;;6.67;4.50;;;;;;;;;;4994219;28;20602;-72
2021/12/10 14:09:25;;;;;;;6.50;4.37;;;;;;;;;;4981364;28;20314;-73
2021/12/10 14:12:16;;;;;;;6.60;4.83;;;;;;;;;;5011523;28;20257;-73
2021/12/10 14:14:46;;;;;;;6.60;4.50;;;;;;;;;;5001220;28;20388;-73
2021/12/10 14:17:14;;;;;;;6.43;4.80;;;;;;;;;;5013717;28;20220;-73
2021/12/10 14:19:47;;;;;;;7.07;4.90;;;;;;;;;;5030695;28;20228;-73
2021/12/10 14:22:14;;;;;;;8.03;4.57;;;;;;;;;;5013821;28;20228;-73
2021/12/10 14:24:50;;;;;;;9.23;5.07;;;;;;;;;;5011182;28;20247;-72
2021/12/10 14:27:26;;;;;;;7.00;5.30;;;;;;;;;;4995440;28;20654;-73
2021/12/10 14:30:15;;;;;;;7.30;4.93;;;;;;;;;;5002397;28;20274;-73
2021/12/10 14:33:01;;;;;;;7.10;4.90;;;;;;;;;;5024124;28;20224;-74
2021/12/10 14:35:29;;;;;;;7.67;5.03;;;;;;;;;;5025443;28;20269;-74
2021/12/10 14:38:06;;;;;;;8.30;5.43;;;;;;;;;;5025442;28;20706;-75
2021/12/10 14:40:47;;;;;;;7.30;5.23;;;;;;;;;;5004362;28;20220;-74
2021/12/10 14:43:22;;;;;;;7.80;5.20;;;;;;;;;;5036178;28;20212;-73
2021/12/10 14:45:56;;;;;;;6.97;5.60;;;;;;;;;;5022814;28;20646;-73
2021/12/10 14:48:24;;;;;;;8.33;5.17;;;;;;;;;;5053800;28;20227;-73
2021/12/10 14:51:10;;;;;;;8.03;5.70;;;;;;;;;;5010906;28;20228;-73
2021/12/10 14:53:40;;;;;;;8.23;5.30;;;;;;;;;;5039330;28;20289;-75
2021/12/10 14:56:35;;;;;;;9.30;6.00;;;;;;;;;;5033703;28;20224;-72
2021/12/10 14:59:02;;;;;;;9.33;5.60;;;;;;;;;;5050962;28;20230;-72
2021/12/10 15:01:30;;;;;;;7.60;5.37;;;;;;;;;;5032759;28;20224;-72
2021/12/10 15:03:59;;;;;;;7.27;5.70;;;;;;;;;;5023776;28;20294;-73
2021/12/10 15:06:24;;;;;;;9.50;5.87;;;;;;;;;;5031420;28;20235;-72